James Reserve, California Weather observations

Data are for 10 minute period ending at time listed.
 Day   Time   Solar   Ave.   Ave.  Ave.  Vector  Max.   Baro.   Total    
  of    of     Rad.   Air    Rel.  Wind   Wind   Wind  Press.  Precip.   
Year   Day            Temp.  Hum.  Speed  Dir.   Gust                    
2014   (PST)  Kw/m2    F      %     mph   deg.    mph    mb.     in.     
-------------------------------------------------------------------------
 238   17:40   0.01   66.7    50    0.5   136     1.7   840.0    0.00 
 238   17:50   0.01   66.1    51    0.5    83     1.8   840.0    0.00 
 238   18:00   0.01   65.3    52    0.4   337     1.2   840.0    0.00 
 238   18:10   0.00   64.8    53    0.5    38     1.0   840.0    0.00 
 238   18:20   0.00   64.1    53    0.3     5     0.7   840.0    0.00 
 238   18:30   0.00   63.1    55    0.3    14     0.7   840.0    0.00 
 238   18:40   0.00   62.1    54    0.3   348     0.5   840.0    0.00 
 238   18:50   0.00   61.0    54    0.4   349     0.7   840.0    0.00 
 238   19:00   0.00   60.1    56    0.3   353     0.5   841.0    0.00 
 238   19:10   0.00   59.0    58    0.2   313     0.4   841.0    0.00 
 238   19:20   0.00   58.4    60    0.4   305     0.7   841.0    0.00 
 238   19:30   0.00   57.7    61    0.3    10     1.2   841.0    0.00 
 238   19:40   0.00   57.5    61    0.3   357     0.8   841.0    0.00 
 238   19:50   0.00   57.1    62    0.3   326     0.8   841.0    0.00 
 238   20:00   0.00   56.6    63    0.3   347     0.8   841.0    0.00 
 238   20:10   0.00   56.4    64    0.4    10     0.9   841.0    0.00 
 238   20:20   0.00   56.0    65    0.3   325     0.9   841.0    0.00 
 238   20:30   0.00   55.8    66    0.5     4     1.0   841.0    0.00 
 238   20:40   0.00   55.5    67    0.3    37     0.9   841.0    0.00 
 238   20:50   0.00   55.7    68    0.8    23     1.8   841.0    0.00 
 238   21:00   0.00   55.7    69    0.4    20     1.1   841.0    0.00 
 238   21:10   0.00   55.9    70    0.4     4     0.8   841.0    0.00 
 238   21:20   0.00   55.9    72    0.4    30     0.9   841.0    0.00 
 238   21:30   0.00   56.0    72    0.4     9     0.9   841.0    0.00 
 238   21:40   0.00   55.8    72    0.4    36     0.9   841.0    0.00 
 238   21:50   0.00   56.0    71    0.5   329     1.4   841.0    0.00 
 238   22:00   0.00   56.0    70    0.6    37     1.0   841.0    0.00 
 238   22:10   0.00   55.9    70    0.4   359     1.0   841.0    0.00 
 238   22:20   0.00   55.8    70    0.4    28     1.1   841.0    0.00 
 238   22:30   0.00   55.6    71    0.2   354     0.5   841.0    0.00 
 238   22:40   0.00   55.3    71    0.4    23     0.7   841.0    0.00 
 238   22:50   0.00   55.4    72    0.3    10     0.8   841.0    0.00 
 238   23:00   0.00   55.2    72    0.5    12     0.8   841.0    0.00 
 238   23:10   0.00   55.0    73    0.3    36     0.7   841.0    0.00 
 238   23:20   0.00   54.9    73    0.4     0     0.8   842.0    0.00 
 238   23:30   0.00   54.7    74    0.4    24     0.7   842.0    0.00 
 238   23:40   0.00   54.7    74    0.5    15     0.9   842.0    0.00 
 238   23:50   0.00   54.7    74    0.5    34     1.2   842.0    0.00 
 239    0:00   0.00   54.5    74    0.5   343     1.0   842.0    0.00 
 239    0:10   0.00   54.7    74    0.7    25     1.8   842.0    0.00 
 239    0:20   0.00   54.6    75    0.6    15     1.3   842.0    0.00 
 239    0:30   0.00   54.6    76    0.2    14     0.6   842.0    0.00 
 239    0:40   0.00   54.5    76    0.4    13     0.7   842.0    0.00 
 239    0:50   0.00   54.4    77    0.2   346     0.7   842.0    0.00 
 239    1:00   0.00   54.3    78    0.5    37     0.9   842.0    0.00 
 239    1:10   0.00   54.5    78    0.6    49     1.2   842.0    0.00 
 239    1:20   0.00   54.4    78    0.4    36     0.9   842.0    0.00 
 239    1:30   0.00   54.4    78    0.3     8     0.8   842.0    0.00 
 239    1:40   0.00   54.3    78    0.5    41     1.2   842.0    0.00 
 239    1:50   0.00   54.4    78    0.4    15     1.2   842.0    0.00 
 239    2:00   0.00   53.9    79    0.3     9     0.5   842.0    0.00 
 239    2:10   0.00   53.9    80    0.2   359     0.5   842.0    0.00 
 239    2:20   0.00   53.6    80    0.3    22     0.7   842.0    0.00 
 239    2:30   0.00   53.5    80    0.4    18     0.7   842.0    0.00 
 239    2:40   0.00   53.1    81    0.3     4     0.7   842.0    0.00 
 239    2:50   0.00   53.1    81    0.7   353     1.7   842.0    0.00 
 239    3:00   0.00   53.0    80    0.6    15     1.1   842.0    0.00 
 239    3:10   0.00   53.0    80    0.6    31     1.0   842.0    0.00 
 239    3:20   0.00   53.0    79    0.4    11     0.8   842.0    0.00 
 239    3:30   0.00   53.0    80    0.3     7     0.8   842.0    0.00 
 239    3:40   0.00   52.9    80    0.3     4     0.5   842.0    0.00 
 239    3:50   0.00   52.7    80    0.5    32     1.2   842.0    0.00 
 239    4:00   0.00   52.8    80    0.4    21     0.9   842.0    0.00 
 239    4:10   0.00   52.7    81    0.4    30     0.8   842.0    0.00 
 239    4:20   0.00   52.5    82    0.3    14     0.8   842.0    0.00 
 239    4:30   0.00   52.4    82    0.6    36     1.3   842.0    0.00 
 239    4:40   0.00   52.4    82    0.5    32     1.0   842.0    0.00 
 239    4:50   0.00   52.4    82    0.4    12     0.7   842.0    0.00 
 239    5:00   0.00   52.4    82    0.4    31     0.9   842.0    0.00 
 239    5:10   0.00   52.2    82    0.4    19     1.1   842.0    0.00 
 239    5:20   0.00   52.3    82    0.6    47     1.4   842.0    0.00 
 239    5:30   0.00   52.5    83    0.6    48     1.2   842.0    0.00 
 239    5:40   0.00   52.7    82    0.6    44     1.9   842.0    0.00 
 239    5:50   0.01   52.7    82    0.5     1     1.1   842.0    0.00 
 239    6:00   0.01   52.9    83    0.6    36     1.3   842.0    0.00 
 239    6:10   0.01   53.2    83    0.5    30     1.6   843.0    0.00 
 239    6:20   0.01   53.4    83    0.4    37     0.9   843.0    0.00 
 239    6:30   0.01   53.9    83    0.4    41     1.0   843.0    0.00 
 239    6:40   0.02   54.3    83    0.6    49     1.2   843.0    0.00 
 239    6:50   0.02   54.7    82    0.7    49     1.0   843.0    0.00 
 239    7:00   0.03   55.1    82    0.5    48     0.9   843.0    0.00 
 239    7:10   0.04   55.9    81    0.7    53     1.1   843.0    0.00 
 239    7:20   0.06   56.6    80    0.6    60     1.3   843.0    0.00 
 239    7:30   0.03   57.5    78    0.7    48     1.6   843.0    0.00 
 239    7:40   0.04   58.7    74    0.7    68     1.3   843.0    0.00 
 239    7:50   0.05   59.7    71    0.6    68     1.1   843.0    0.00 
 239    8:00   0.11   61.4    67    0.5   160     1.6   843.0    0.00 
 239    8:10   0.12   63.6    59    0.6   125     1.4   843.0    0.00 
 239    8:20   0.19   66.3    55    0.7    96     2.5   843.0    0.00 
 239    8:30   0.43   69.3    47    1.0   202     2.0   843.0    0.00 
 239    8:40   0.36   69.7    46    0.8   204     2.9   843.0    0.00 
 239    8:50   0.15   70.2    44    0.8   191     1.8   843.0    0.00 
 239    9:00   0.04   70.5    43    1.0   188     2.3   843.0    0.00 
 239    9:10   0.09   71.2    42    0.9   184     2.2   843.0    0.00 
 239    9:20   0.60   71.5    39    0.8   189     1.9   843.0    0.00 
 239    9:30   0.83   72.1    38    1.1   198     2.5   843.0    0.00 
 239    9:40   0.86   72.8    35    1.1   170     2.4   843.0    0.00 
 239    9:50   0.89   73.3    34    1.0   171     2.7   843.0    0.00 
 239   10:00   0.91   73.2    35    1.2   184     3.0   843.0    0.00 
 239   10:10   0.93   74.8    34    0.9   339     2.3   843.0    0.00 
 239   10:20   0.75   75.7    33    1.1   330     2.7   843.0    0.00 
 239   10:30   0.25   74.8    33    0.9   137     2.0   843.0    0.00 
 239   10:40   0.60   73.4    33    1.0    60     2.8   843.0    0.00 
 239   10:50   0.98   75.0    33    1.1     0     2.3   843.0    0.00 
 239   11:00   0.99   76.0    32    0.9    41     3.0   843.0    0.00 
 239   11:10   0.99   75.0    32    1.1   157     3.0   843.0    0.00 
 239   11:20   0.99   74.6    33    1.0   181     3.0   843.0    0.00 
 239   11:30   1.00   76.0    31    1.1   279     2.6   843.0    0.00 
 239   11:40   1.00   74.9    31    0.9   126     3.0   843.0    0.00 
 239   11:50   1.00   76.9    31    1.0   301     2.8   843.0    0.00 
 239   12:00   1.00   75.5    32    0.8    26     2.4   843.0    0.00 
 239   12:10   1.00   76.9    32    1.0   258     2.6   843.0    0.00 
 239   12:20   0.99   75.9    33    0.9   106     2.1   843.0    0.00 
 239   12:30   0.98   76.7    33    0.9   149     2.5   843.0    0.00 
 239   12:40   0.98   77.5    31    1.0     2     2.0   843.0    0.00 
 239   12:50   0.97   76.4    31    1.1   164     2.6   843.0    0.00 
 239   13:00   0.96   77.6    31    1.1   325     2.6   843.0    0.00 
 239   13:10   0.95   78.3    30    0.9   204     2.8   843.0    0.00 
 239   13:20   0.93   78.1    31    0.9   337     1.9   843.0    0.00 
 239   13:30   0.92   78.5    31    1.0   354     2.2   843.0    0.00 
 239   13:40   0.90   78.4    31    0.8   251     2.4   843.0    0.00 
 239   13:50   0.88   77.0    32    1.0    26     2.6   843.0    0.00 
 239   14:00   0.85   77.5    31    0.8    89     2.3   843.0    0.00 
 239   14:10   0.83   77.6    31    0.9   178     2.5   843.0    0.00 
 239   14:20   0.80   77.2    31    1.1   168     2.3   842.0    0.00 
 239   14:30   0.76   77.6    31    1.0   141     2.4   842.0    0.00 
 239   14:40   0.32   76.4    32    0.8   150     2.1   842.0    0.00 
 239   14:50   0.23   76.3    33    0.9    73     2.0   842.0    0.00 
 239   15:00   0.06   76.8    32    1.0    87     2.1   842.0    0.00 
 239   15:10   0.11   76.5    32    0.9    66     3.0   842.0    0.00 
 239   15:20   0.08   76.3    32    1.0   117     2.3   842.0    0.00 
 239   15:30   0.05   76.6    32    1.0   140     2.4   842.0    0.00 
 239   15:40   0.05   75.9    33    0.7   161     1.9   842.0    0.00 
 239   15:50   0.04   75.3    33    0.9    84     2.5   842.0    0.00 
 239   16:00   0.05   75.0    34    0.7   154     2.1   842.0    0.00 
 239   16:10   0.04   74.9    35    0.6   108     2.2   842.0    0.00 
 239   16:20   0.03   74.3    35    0.9    39     2.5   842.0    0.00 
 239   16:30   0.03   74.2    37    0.8   133     2.3   842.0    0.00 
 239   16:40   0.03   73.5    37    0.7   241     2.0   842.0    0.00 
 239   16:50   0.03   73.1    39    0.7    48     1.6   842.0    0.00 
 239   17:00   0.02   72.6    40    0.6   137     1.6   842.0    0.00 
 239   17:10   0.02   72.0    41    0.6   261     1.6   842.0    0.00 
 239   17:20   0.02   71.0    44    0.5   232     1.7   842.0    0.00 
 239   17:30   0.02   70.7    43    0.5    79     1.5   842.0    0.00 

Return to James Reserve graphs page.


Western Regional Climate Center,wrcc@dri.edu